createdAt,value
2023-05-16T00:00:06.981Z,13.32
2023-05-16T00:01:39.669Z,7.68
2023-05-16T00:03:13.051Z,10.73
2023-05-16T00:04:47.647Z,10.73
2023-05-16T00:06:21.188Z,11.02
2023-05-16T00:07:54.482Z,8.10
2023-05-16T00:09:27.841Z,11.02
2023-05-16T00:10:59.981Z,9.35
2023-05-16T00:12:33.197Z,9.52
2023-05-16T00:14:06.639Z,9.23
2023-05-16T00:15:41.195Z,10.50
2023-05-16T00:17:14.632Z,13.55
2023-05-16T00:18:48.340Z,15.15
2023-05-16T00:20:23.777Z,15.55
2023-05-16T00:21:57.040Z,14.10
2023-05-16T00:23:30.175Z,12.85
2023-05-16T00:25:03.689Z,14.30
2023-05-16T00:26:37.089Z,12.68
2023-05-16T00:28:10.289Z,11.43
2023-05-16T00:29:43.695Z,14.07
2023-05-16T00:31:18.403Z,11.18
2023-05-16T00:32:51.695Z,17.15
2023-05-16T00:34:25.397Z,10.73
2023-05-16T00:35:57.968Z,12.65
2023-05-16T00:37:31.151Z,8.18
2023-05-16T00:39:04.355Z,10.65
2023-05-16T00:40:37.474Z,11.05
2023-05-16T00:42:10.599Z,11.18
2023-05-16T00:43:45.124Z,12.27
2023-05-16T00:45:19.082Z,9.90
2023-05-16T00:46:53.854Z,13.68
2023-05-16T00:48:27.298Z,13.48
2023-05-16T00:49:59.677Z,8.85
2023-05-16T00:51:32.990Z,12.02
2023-05-16T00:53:06.289Z,9.65
2023-05-16T00:54:39.604Z,12.75
2023-05-16T00:56:13.002Z,12.70
2023-05-16T00:57:45.516Z,9.65
2023-05-16T00:59:18.821Z,12.80
2023-05-16T01:00:52.135Z,10.80
2023-05-16T01:02:29.136Z,8.05
2023-05-16T01:04:02.727Z,11.57
2023-05-16T01:05:35.932Z,8.93
2023-05-16T01:07:09.080Z,11.93
2023-05-16T01:08:42.325Z,12.77
2023-05-16T01:10:16.473Z,14.98
2023-05-16T01:11:55.206Z,14.23
2023-05-16T01:13:34.995Z,10.07
2023-05-16T01:15:10.988Z,9.50
2023-05-16T01:16:50.935Z,7.97
2023-05-16T01:18:32.227Z,10.38
2023-05-16T01:20:15.473Z,9.40
2023-05-16T01:21:51.328Z,12.85
2023-05-16T01:23:43.121Z,10.15
2023-05-16T01:25:29.148Z,9.38
2023-05-16T01:27:06.191Z,9.90
2023-05-16T01:28:41.360Z,13.85
2023-05-16T01:30:19.183Z,20.67
2023-05-16T01:31:52.461Z,14.05
2023-05-16T01:33:27.826Z,10.35
2023-05-16T01:35:01.349Z,9.18
2023-05-16T01:36:42.505Z,8.93
2023-05-16T01:38:25.181Z,14.18
2023-05-16T01:40:07.991Z,11.45
2023-05-16T01:41:48.760Z,8.95
2023-05-16T01:43:32.400Z,9.65
2023-05-16T01:45:10.202Z,10.88
2023-05-16T01:46:47.105Z,8.45
2023-05-16T01:48:24.123Z,10.85
2023-05-16T01:50:04.666Z,11.25
2023-05-16T01:51:40.793Z,13.35
2023-05-16T01:53:20.148Z,6.93
2023-05-16T01:54:55.487Z,10.35
2023-05-16T01:56:29.908Z,13.07
2023-05-16T01:58:05.719Z,13.63
2023-05-16T01:59:42.993Z,12.00
2023-05-16T02:01:15.828Z,12.77
2023-05-16T02:02:49.001Z,9.10
2023-05-16T02:04:24.456Z,10.25
2023-05-16T02:05:57.680Z,11.77
2023-05-16T02:07:30.958Z,10.50
2023-05-16T02:09:03.253Z,10.35
2023-05-16T02:10:36.610Z,11.38
2023-05-16T02:12:09.837Z,14.05
2023-05-16T02:13:43.034Z,14.70
2023-05-16T02:15:17.716Z,10.18
2023-05-16T02:16:50.967Z,16.90
2023-05-16T02:18:24.737Z,14.32
2023-05-16T02:19:57.854Z,9.77
2023-05-16T02:21:31.333Z,11.57
2023-05-16T02:23:05.013Z,11.50
2023-05-16T02:24:38.795Z,18.00
2023-05-16T02:26:11.913Z,17.58
2023-05-16T02:27:45.081Z,11.15
2023-05-16T02:29:18.574Z,11.85
2023-05-16T02:30:59.052Z,13.38
2023-05-16T02:32:32.251Z,11.00
2023-05-16T02:34:05.605Z,13.98
2023-05-16T02:35:38.902Z,12.43
2023-05-16T02:37:13.484Z,12.63
2023-05-16T02:38:46.715Z,13.60
2023-05-16T02:40:20.505Z,20.55
2023-05-16T02:41:53.814Z,14.43
2023-05-16T02:43:27.073Z,13.85
2023-05-16T02:45:00.265Z,15.00
2023-05-16T02:46:35.843Z,11.85
2023-05-16T02:48:10.668Z,22.90
2023-05-16T02:49:44.024Z,16.60
2023-05-16T02:51:16.174Z,13.45
2023-05-16T02:52:49.698Z,11.85
2023-05-16T02:54:22.976Z,10.95
2023-05-16T02:55:55.239Z,11.60
2023-05-16T02:57:28.372Z,13.10
2023-05-16T02:59:01.602Z,14.10
2023-05-16T03:00:35.367Z,12.85
2023-05-16T03:02:10.002Z,15.45
2023-05-16T03:03:43.445Z,11.48
2023-05-16T03:05:17.121Z,15.48
2023-05-16T03:06:51.288Z,13.65
2023-05-16T03:08:24.524Z,11.63
2023-05-16T03:09:57.611Z,17.90
2023-05-16T03:11:29.927Z,14.15
2023-05-16T03:13:03.261Z,11.82
2023-05-16T03:14:36.410Z,11.43
2023-05-16T03:16:09.724Z,12.85
2023-05-16T03:17:44.302Z,12.15
2023-05-16T03:19:17.703Z,12.55
2023-05-16T03:20:53.140Z,13.88
2023-05-16T03:22:26.325Z,16.83
2023-05-16T03:23:59.647Z,10.00
2023-05-16T03:25:33.194Z,12.10
2023-05-16T03:27:06.911Z,12.88
2023-05-16T03:28:39.066Z,11.00
2023-05-16T03:30:14.117Z,12.82
2023-05-16T03:31:47.477Z,11.65
2023-05-16T03:33:22.107Z,14.07
2023-05-16T03:34:55.195Z,9.55
2023-05-16T03:36:29.771Z,12.40
2023-05-16T03:38:03.165Z,7.40
2023-05-16T03:39:36.267Z,11.27
2023-05-16T03:41:09.407Z,11.05
2023-05-16T03:42:42.630Z,12.40
2023-05-16T03:44:15.903Z,16.08
2023-05-16T03:45:48.089Z,13.68
2023-05-16T03:47:21.251Z,9.52
2023-05-16T03:48:55.749Z,14.38
2023-05-16T03:50:29.297Z,17.90
2023-05-16T03:52:02.414Z,13.35
2023-05-16T03:53:35.560Z,12.38
2023-05-16T03:55:09.374Z,11.00
2023-05-16T03:56:42.657Z,12.27
2023-05-16T03:58:16.637Z,12.30
2023-05-16T03:59:49.796Z,10.45
2023-05-16T04:01:22.895Z,15.55
2023-05-16T04:02:56.264Z,13.30
2023-05-16T04:04:30.930Z,14.70
2023-05-16T04:06:04.311Z,12.90
2023-05-16T04:07:37.727Z,14.27
2023-05-16T04:09:11.022Z,15.65
2023-05-16T04:10:44.211Z,10.98
2023-05-16T04:12:16.645Z,12.00
2023-05-16T04:13:50.133Z,12.43
2023-05-16T04:15:22.444Z,11.93
2023-05-16T04:16:55.630Z,11.55
2023-05-16T04:18:28.806Z,15.05
2023-05-16T04:20:04.404Z,15.75
2023-05-16T04:21:37.755Z,14.00
2023-05-16T04:23:12.106Z,16.83
2023-05-16T04:24:45.231Z,10.73
2023-05-16T04:26:18.396Z,13.07
2023-05-16T04:27:50.947Z,14.50
2023-05-16T04:29:24.168Z,13.23
2023-05-16T04:30:57.301Z,13.48
2023-05-16T04:32:30.659Z,18.50
2023-05-16T04:34:03.985Z,10.70
2023-05-16T04:35:38.770Z,12.77
2023-05-16T04:37:11.987Z,12.82
2023-05-16T04:38:46.939Z,13.77
2023-05-16T04:40:19.370Z,12.05
2023-05-16T04:41:53.037Z,7.97
2023-05-16T04:43:26.386Z,9.98
2023-05-16T04:44:59.605Z,10.18
2023-05-16T04:46:32.867Z,8.88
2023-05-16T04:48:06.345Z,15.60
2023-05-16T04:49:39.668Z,10.30
2023-05-16T04:51:14.313Z,16.00
2023-05-16T04:52:47.500Z,6.95
2023-05-16T04:54:20.837Z,8.57
2023-05-16T04:55:54.483Z,12.07
2023-05-16T04:57:28.376Z,14.60
2023-05-16T04:59:01.718Z,12.93
2023-05-16T05:00:34.925Z,15.57
2023-05-16T05:02:08.325Z,17.35
2023-05-16T05:03:41.558Z,18.15
2023-05-16T05:05:15.022Z,16.45
2023-05-16T05:06:49.611Z,11.68
2023-05-16T05:08:23.520Z,11.40
2023-05-16T05:09:57.083Z,17.95
2023-05-16T05:11:30.245Z,12.48
2023-05-16T05:13:03.751Z,12.52
2023-05-16T05:14:35.899Z,14.68
2023-05-16T05:16:09.059Z,13.63
2023-05-16T05:17:42.298Z,16.42
2023-05-16T05:19:15.498Z,14.85
2023-05-16T05:20:48.818Z,13.38
2023-05-16T05:22:23.328Z,10.98
2023-05-16T05:23:56.508Z,10.50
2023-05-16T05:25:29.753Z,10.30
2023-05-16T05:27:03.249Z,8.05
2023-05-16T05:28:37.800Z,8.07
2023-05-16T05:30:11.705Z,11.75
2023-05-16T05:31:44.963Z,10.15
2023-05-16T05:33:19.294Z,11.38
2023-05-16T05:34:52.654Z,14.55
2023-05-16T05:36:25.975Z,14.52
2023-05-16T05:38:00.567Z,10.85
2023-05-16T05:39:33.761Z,20.98
2023-05-16T05:41:07.571Z,12.93
2023-05-16T05:42:40.768Z,13.32
2023-05-16T05:44:13.972Z,11.10
2023-05-16T05:45:47.559Z,18.77
2023-05-16T05:47:21.807Z,9.38
2023-05-16T05:48:54.965Z,13.98
2023-05-16T05:50:28.200Z,14.13
2023-05-16T05:52:01.422Z,17.45
2023-05-16T05:53:36.265Z,14.55
2023-05-16T05:55:10.170Z,14.55
2023-05-16T05:56:43.268Z,14.25
2023-05-16T05:58:18.224Z,14.65
2023-05-16T05:59:51.520Z,16.88
2023-05-16T06:01:24.959Z,13.75
2023-05-16T06:02:58.187Z,13.57
2023-05-16T06:04:31.415Z,12.45
2023-05-16T06:06:06.043Z,11.85
2023-05-16T06:07:39.355Z,10.88
2023-05-16T06:09:15.106Z,11.30
2023-05-16T06:10:49.146Z,10.73
2023-05-16T06:12:22.318Z,10.20
2023-05-16T06:13:55.718Z,12.10
2023-05-16T06:15:29.059Z,15.45
2023-05-16T06:17:02.704Z,13.93
2023-05-16T06:18:35.918Z,12.00
2023-05-16T06:20:09.967Z,15.32
2023-05-16T06:21:43.299Z,18.60
2023-05-16T06:23:16.796Z,15.23
2023-05-16T06:24:51.630Z,12.10
2023-05-16T06:26:24.851Z,15.18
2023-05-16T06:27:58.056Z,11.60
2023-05-16T06:29:31.624Z,13.93
2023-05-16T06:31:04.957Z,10.35
2023-05-16T06:32:38.490Z,12.75
2023-05-16T06:34:11.739Z,12.77
2023-05-16T06:35:45.197Z,14.65
2023-05-16T06:37:18.419Z,14.15
2023-05-16T06:38:51.902Z,9.88
2023-05-16T06:40:26.475Z,13.63
2023-05-16T06:41:59.866Z,13.88
2023-05-16T06:43:38.307Z,11.30
2023-05-16T06:45:12.276Z,13.55
2023-05-16T06:46:45.625Z,13.32
2023-05-16T06:48:20.394Z,17.27
2023-05-16T06:49:53.708Z,16.42
2023-05-16T06:51:26.949Z,13.20
2023-05-16T06:53:00.790Z,12.65
2023-05-16T06:54:34.237Z,12.75
2023-05-16T06:56:08.969Z,14.68
2023-05-16T06:57:42.142Z,13.32
2023-05-16T06:59:15.390Z,15.10
2023-05-16T07:00:51.407Z,13.98
2023-05-16T07:02:24.636Z,13.63
2023-05-16T07:03:58.132Z,13.23
2023-05-16T07:05:31.515Z,14.40
2023-05-16T07:07:04.976Z,11.77
2023-05-16T07:08:38.292Z,14.18
2023-05-16T07:10:12.528Z,12.57
2023-05-16T07:11:47.109Z,19.40
2023-05-16T07:13:20.722Z,16.38
2023-05-16T07:14:54.136Z,15.30
2023-05-16T07:16:28.617Z,14.18
2023-05-16T07:18:02.092Z,18.40
2023-05-16T07:19:35.593Z,16.80
2023-05-16T07:21:08.748Z,16.40
2023-05-16T07:22:42.219Z,12.55
2023-05-16T07:24:15.367Z,17.38
2023-05-16T07:25:49.156Z,16.27
2023-05-16T07:27:23.862Z,10.70
2023-05-16T07:28:57.169Z,13.68
2023-05-16T07:30:30.683Z,11.52
2023-05-16T07:32:04.402Z,17.88
2023-05-16T07:33:37.598Z,13.25
2023-05-16T07:35:13.408Z,19.67
2023-05-16T07:36:46.609Z,16.92
2023-05-16T07:38:20.203Z,20.55
2023-05-16T07:39:53.407Z,17.05
2023-05-16T07:41:27.179Z,13.98
2023-05-16T07:43:02.857Z,21.13
2023-05-16T07:44:36.525Z,18.63
2023-05-16T07:46:09.736Z,23.17
2023-05-16T07:47:42.995Z,16.25
2023-05-16T07:49:16.266Z,15.30
2023-05-16T07:50:49.881Z,17.70
2023-05-16T07:52:23.025Z,13.38
2023-05-16T07:53:56.198Z,19.05
2023-05-16T07:55:29.625Z,17.50
2023-05-16T07:57:03.431Z,15.95
2023-05-16T07:58:40.093Z,16.15
2023-05-16T08:00:14.844Z,17.05
2023-05-16T08:01:48.189Z,20.88
2023-05-16T08:03:21.954Z,23.55
2023-05-16T08:04:55.442Z,22.95
2023-05-16T08:06:29.849Z,13.00
2023-05-16T08:08:03.016Z,21.33
2023-05-16T08:09:36.462Z,11.60
2023-05-16T08:11:09.669Z,13.30
2023-05-16T08:12:43.056Z,16.38
2023-05-16T08:14:17.644Z,21.25
2023-05-16T08:15:51.308Z,13.55
2023-05-16T08:17:24.474Z,14.18
2023-05-16T08:18:57.820Z,18.90
2023-05-16T08:20:31.063Z,16.65
2023-05-16T08:22:04.340Z,19.58
2023-05-16T08:23:37.568Z,19.35
2023-05-16T08:25:11.196Z,22.50
2023-05-16T08:26:44.341Z,14.02
2023-05-16T08:28:17.916Z,15.23
2023-05-16T08:29:52.493Z,22.30
2023-05-16T08:31:25.909Z,24.08
2023-05-16T08:32:59.164Z,20.80
2023-05-16T08:34:33.079Z,29.05
2023-05-16T08:36:07.220Z,18.50
2023-05-16T08:37:40.524Z,14.80
2023-05-16T08:39:13.911Z,14.88
2023-05-16T08:40:47.413Z,18.45
2023-05-16T08:42:20.800Z,16.80
2023-05-16T08:43:54.173Z,14.60
2023-05-16T08:45:29.803Z,23.60
2023-05-16T08:47:12.367Z,16.65
2023-05-16T08:48:48.528Z,17.42
2023-05-16T08:50:22.805Z,14.98
2023-05-16T08:51:59.388Z,26.98
2023-05-16T08:53:37.585Z,17.13
2023-05-16T08:55:12.295Z,19.20
2023-05-16T08:56:46.902Z,25.55
2023-05-16T08:58:21.669Z,16.25
2023-05-16T08:59:59.261Z,14.50
2023-05-16T09:01:34.448Z,24.40
2023-05-16T09:03:08.110Z,34.17
2023-05-16T09:04:42.578Z,29.67
2023-05-16T09:06:16.170Z,23.63
2023-05-16T09:07:49.382Z,18.60
2023-05-16T09:09:22.544Z,17.35
2023-05-16T09:10:56.271Z,15.63
2023-05-16T09:12:29.811Z,16.25
2023-05-16T09:14:02.985Z,15.40
2023-05-16T09:15:36.210Z,14.38
2023-05-16T09:17:12.984Z,32.13
2023-05-16T09:18:50.615Z,29.20
2023-05-16T09:20:23.865Z,25.98
2023-05-16T09:21:57.141Z,13.65
2023-05-16T09:23:30.857Z,15.50
2023-05-16T09:25:06.949Z,12.27
2023-05-16T09:26:41.988Z,11.45
2023-05-16T09:28:15.661Z,11.63
2023-05-16T09:29:52.976Z,14.52
2023-05-16T09:31:30.801Z,17.08
2023-05-16T09:33:08.200Z,18.75
2023-05-16T09:34:45.364Z,13.15
2023-05-16T09:36:18.910Z,18.75
2023-05-16T09:37:53.541Z,43.25
2023-05-16T09:39:27.842Z,40.33
2023-05-16T09:41:01.067Z,30.83
2023-05-16T09:42:34.646Z,24.45
2023-05-16T09:44:08.323Z,23.55
2023-05-16T09:45:47.860Z,24.58
2023-05-16T09:47:22.186Z,24.33
2023-05-16T09:48:57.395Z,24.73
2023-05-16T09:50:30.762Z,20.92
2023-05-16T09:52:04.756Z,23.63
2023-05-16T09:53:39.942Z,25.15
2023-05-16T09:55:13.150Z,17.77
2023-05-16T09:56:52.850Z,16.17
2023-05-16T09:58:30.269Z,15.98
2023-05-16T10:00:08.455Z,19.35
2023-05-16T10:01:42.542Z,13.15
2023-05-16T10:03:17.094Z,13.57
2023-05-16T10:04:51.733Z,13.98
2023-05-16T10:06:25.246Z,13.75
2023-05-16T10:07:59.055Z,12.98
2023-05-16T10:09:33.896Z,12.45
2023-05-16T10:11:07.883Z,12.77
2023-05-16T10:12:42.316Z,9.93
2023-05-16T10:14:19.009Z,12.85
2023-05-16T10:15:55.760Z,12.13
2023-05-16T10:17:32.451Z,9.90
2023-05-16T10:19:06.616Z,12.05
2023-05-16T10:20:43.990Z,14.68
2023-05-16T10:22:18.284Z,16.17
2023-05-16T10:23:53.774Z,11.25
2023-05-16T10:25:33.352Z,11.07
2023-05-16T10:27:07.332Z,15.38
2023-05-16T10:28:41.756Z,14.90
2023-05-16T10:30:17.453Z,14.75
2023-05-16T10:31:51.076Z,14.95
2023-05-16T10:33:24.807Z,13.65
2023-05-16T10:35:01.285Z,16.50
2023-05-16T10:36:36.034Z,9.13
2023-05-16T10:38:12.124Z,19.00
2023-05-16T10:39:46.026Z,10.68
2023-05-16T10:41:22.037Z,12.50
2023-05-16T10:42:58.510Z,16.35
2023-05-16T10:44:33.902Z,14.80
2023-05-16T10:46:12.335Z,17.13
2023-05-16T10:47:53.503Z,19.60
2023-05-16T10:49:28.925Z,17.75
2023-05-16T10:51:04.124Z,16.75
2023-05-16T10:52:38.837Z,12.00
2023-05-16T10:54:15.104Z,13.30
2023-05-16T10:56:06.302Z,14.63
2023-05-16T10:57:40.052Z,14.05
2023-05-16T10:59:27.209Z,12.35
2023-05-16T11:01:34.303Z,13.10
2023-05-16T11:03:08.088Z,13.20
2023-05-16T11:04:49.711Z,14.35
2023-05-16T11:06:24.904Z,14.40
2023-05-16T11:08:07.382Z,14.95
2023-05-16T11:09:45.508Z,13.25
2023-05-16T11:11:50.036Z,15.75
2023-05-16T11:13:26.135Z,11.48
2023-05-16T11:15:00.716Z,18.17
2023-05-16T11:16:35.804Z,16.27
2023-05-16T11:18:11.287Z,20.85
2023-05-16T11:19:46.128Z,17.05
2023-05-16T11:21:19.312Z,13.60
2023-05-16T11:22:52.886Z,10.05
2023-05-16T11:24:31.530Z,10.70
2023-05-16T11:26:04.876Z,14.02
2023-05-16T11:27:45.341Z,14.48
2023-05-16T11:29:18.918Z,13.95
2023-05-16T11:30:55.315Z,14.02
2023-05-16T11:32:28.718Z,18.05
2023-05-16T11:34:02.171Z,12.40
2023-05-16T11:35:35.435Z,11.82
2023-05-16T11:37:11.748Z,10.60
2023-05-16T11:38:44.971Z,11.63
2023-05-16T11:40:19.552Z,11.00
2023-05-16T11:41:55.862Z,10.90
2023-05-16T11:43:29.167Z,8.45
2023-05-16T11:45:07.427Z,6.85
2023-05-16T11:46:41.920Z,6.28
2023-05-16T11:48:24.696Z,5.78
2023-05-16T11:49:59.125Z,8.63
2023-05-16T11:51:32.540Z,7.68
2023-05-16T11:53:05.749Z,10.65
2023-05-16T11:54:39.578Z,7.97
2023-05-16T11:56:14.350Z,9.63
2023-05-16T11:57:48.031Z,11.88
2023-05-16T11:59:21.782Z,10.90
2023-05-16T12:00:56.022Z,6.72
2023-05-16T12:02:31.147Z,9.68
2023-05-16T12:04:09.236Z,7.85
2023-05-16T12:05:53.376Z,11.15
2023-05-16T12:07:29.567Z,7.93
2023-05-16T12:09:10.263Z,10.93
2023-05-16T12:10:43.722Z,14.25
2023-05-16T12:12:22.063Z,12.00
2023-05-16T12:13:55.891Z,11.00
2023-05-16T12:15:29.904Z,8.57
2023-05-16T12:17:04.826Z,16.75
2023-05-16T12:18:41.217Z,14.15
2023-05-16T12:20:17.465Z,9.52
2023-05-16T12:21:54.398Z,9.65
2023-05-16T12:23:29.367Z,12.07
2023-05-16T12:25:27.744Z,13.52
2023-05-16T12:27:01.383Z,8.85
2023-05-16T12:28:39.327Z,10.65
2023-05-16T12:30:13.760Z,10.32
2023-05-16T12:31:47.401Z,11.27
2023-05-16T12:33:21.976Z,10.88
2023-05-16T12:34:56.333Z,11.52
2023-05-16T12:36:33.552Z,15.45
2023-05-16T12:38:07.896Z,7.53
2023-05-16T12:39:41.096Z,9.13
2023-05-16T12:41:19.334Z,10.65
2023-05-16T12:42:53.190Z,10.75
2023-05-16T12:44:31.631Z,8.30
2023-05-16T12:46:11.776Z,10.73
2023-05-16T12:47:45.273Z,9.02
2023-05-16T12:49:21.791Z,9.57
2023-05-16T12:50:55.417Z,8.48
2023-05-16T12:52:30.594Z,5.07
2023-05-16T12:54:11.248Z,8.50
2023-05-16T12:55:45.508Z,6.15
2023-05-16T12:57:20.109Z,8.70
2023-05-16T12:58:53.364Z,11.48
2023-05-16T13:00:28.112Z,9.50
2023-05-16T13:02:01.574Z,15.27
2023-05-16T13:03:36.391Z,12.43
2023-05-16T13:05:10.437Z,5.95
2023-05-16T13:06:56.528Z,9.93
2023-05-16T13:08:32.080Z,9.90
2023-05-16T13:10:06.476Z,7.10
2023-05-16T13:11:39.679Z,9.40
2023-05-16T13:13:15.167Z,14.80
2023-05-16T13:14:52.644Z,10.85
2023-05-16T13:16:27.565Z,10.18
2023-05-16T13:18:00.729Z,9.50
2023-05-16T13:19:34.549Z,8.27
2023-05-16T13:21:07.979Z,8.52
2023-05-16T13:22:42.153Z,10.00
2023-05-16T13:24:15.383Z,6.47
2023-05-16T13:25:49.663Z,8.82
2023-05-16T13:27:23.025Z,11.10
2023-05-16T13:28:57.021Z,9.00
2023-05-16T13:30:30.765Z,15.00
2023-05-16T13:32:08.786Z,13.10
2023-05-16T13:33:41.961Z,5.32
2023-05-16T13:35:16.183Z,7.72
2023-05-16T13:36:54.399Z,9.75
2023-05-16T13:38:28.211Z,10.63
2023-05-16T13:40:01.464Z,7.82
2023-05-16T13:41:37.818Z,10.77
2023-05-16T13:43:11.267Z,8.55
2023-05-16T13:44:45.004Z,8.18
2023-05-16T13:46:19.037Z,12.88
2023-05-16T13:47:53.940Z,6.95
2023-05-16T13:49:30.104Z,9.07
2023-05-16T13:51:03.319Z,8.90
2023-05-16T13:52:37.847Z,7.47
2023-05-16T13:54:11.827Z,5.35
2023-05-16T13:55:45.138Z,5.75
2023-05-16T13:57:18.329Z,9.10
2023-05-16T13:59:02.238Z,7.80
2023-05-16T14:00:45.102Z,7.75
2023-05-16T14:02:19.410Z,3.92
2023-05-16T14:03:54.007Z,6.50
2023-05-16T14:05:27.451Z,7.32
2023-05-16T14:07:01.396Z,15.00
2023-05-16T14:08:34.861Z,9.18
2023-05-16T14:10:09.836Z,8.65
2023-05-16T14:11:43.014Z,6.72
2023-05-16T14:13:16.375Z,4.45
2023-05-16T14:14:49.735Z,8.10
2023-05-16T14:16:23.063Z,4.57
2023-05-16T14:17:56.304Z,5.80
2023-05-16T14:19:31.549Z,7.53
2023-05-16T14:21:05.036Z,6.97
2023-05-16T14:22:38.586Z,5.75
2023-05-16T14:24:12.043Z,6.25
2023-05-16T14:25:45.439Z,9.23
2023-05-16T14:27:18.670Z,11.85
2023-05-16T14:28:51.881Z,8.40
2023-05-16T14:30:25.012Z,10.13
2023-05-16T14:31:58.369Z,8.77
2023-05-16T14:33:33.067Z,7.72
2023-05-16T14:35:09.610Z,6.38
2023-05-16T14:36:43.750Z,6.55
2023-05-16T14:38:17.152Z,5.47
2023-05-16T14:39:50.756Z,5.60
2023-05-16T14:41:23.886Z,11.38
2023-05-16T14:42:57.175Z,9.70
2023-05-16T14:44:30.755Z,9.48
2023-05-16T14:46:03.931Z,12.60
2023-05-16T14:47:37.803Z,8.23
2023-05-16T14:49:11.203Z,10.38
2023-05-16T14:50:46.161Z,14.73
2023-05-16T14:52:19.405Z,8.68
2023-05-16T14:53:52.579Z,7.65
2023-05-16T14:55:26.046Z,9.20
2023-05-16T14:57:00.237Z,5.03
2023-05-16T14:58:34.827Z,6.30
2023-05-16T15:00:10.834Z,8.63
2023-05-16T15:01:44.008Z,7.70
2023-05-16T15:03:18.344Z,6.72
2023-05-16T15:04:51.832Z,6.43
2023-05-16T15:06:26.462Z,10.70
2023-05-16T15:08:00.611Z,10.25
2023-05-16T15:09:34.027Z,8.07
2023-05-16T15:11:07.226Z,9.45
2023-05-16T15:12:41.149Z,10.55
2023-05-16T15:14:14.415Z,8.30
2023-05-16T15:15:47.937Z,5.68
2023-05-16T15:17:21.231Z,6.95
2023-05-16T15:18:54.607Z,9.68
2023-05-16T15:20:28.293Z,11.25
2023-05-16T15:22:03.549Z,11.05
2023-05-16T15:23:36.863Z,15.23
2023-05-16T15:25:10.963Z,8.35
2023-05-16T15:26:44.582Z,6.03
2023-05-16T15:28:21.821Z,4.53
2023-05-16T15:29:55.805Z,12.15
2023-05-16T15:31:29.717Z,8.02
2023-05-16T15:33:03.018Z,7.88
2023-05-16T15:34:36.882Z,8.80
2023-05-16T15:36:10.120Z,7.90
2023-05-16T15:37:44.902Z,10.25
2023-05-16T15:39:18.113Z,8.00
2023-05-16T15:41:01.545Z,10.48
2023-05-16T15:42:45.408Z,15.98
2023-05-16T15:44:18.547Z,5.85
2023-05-16T15:45:51.916Z,10.07
2023-05-16T15:47:25.285Z,6.70
2023-05-16T15:48:58.607Z,8.32
2023-05-16T15:50:31.893Z,10.93
2023-05-16T15:52:05.604Z,6.75
2023-05-16T15:53:40.452Z,7.18
2023-05-16T15:55:13.656Z,12.48
2023-05-16T15:56:46.984Z,10.73
2023-05-16T15:58:22.637Z,7.18
2023-05-16T15:59:56.034Z,11.20
2023-05-16T16:01:29.496Z,8.73
2023-05-16T16:03:02.988Z,12.73
2023-05-16T16:04:36.322Z,9.60
2023-05-16T16:06:09.547Z,12.98
2023-05-16T16:07:43.070Z,6.97
2023-05-16T16:09:18.523Z,8.82
2023-05-16T16:10:52.098Z,8.88
2023-05-16T16:12:25.300Z,10.20
2023-05-16T16:13:58.567Z,6.43
2023-05-16T16:15:33.506Z,9.60
2023-05-16T16:17:07.229Z,7.07
2023-05-16T16:18:40.499Z,6.20
2023-05-16T16:20:13.770Z,5.32
2023-05-16T16:21:47.215Z,6.85
2023-05-16T16:23:20.742Z,3.78
2023-05-16T16:24:56.146Z,7.93
2023-05-16T16:26:29.491Z,12.70
2023-05-16T16:28:02.713Z,9.50
2023-05-16T16:29:36.098Z,8.40
2023-05-16T16:31:09.336Z,11.25
2023-05-16T16:32:42.576Z,4.15
2023-05-16T16:34:15.778Z,6.32
2023-05-16T16:35:49.228Z,6.28
2023-05-16T16:37:22.351Z,7.90
2023-05-16T16:38:56.301Z,7.40
2023-05-16T16:40:31.118Z,8.55
2023-05-16T16:42:04.505Z,7.55
2023-05-16T16:43:39.845Z,7.30
2023-05-16T16:45:13.244Z,6.65
2023-05-16T16:46:46.490Z,7.90
2023-05-16T16:48:19.932Z,8.45
2023-05-16T16:49:53.406Z,7.28
2023-05-16T16:51:29.985Z,6.65
2023-05-16T16:53:04.558Z,11.23
2023-05-16T16:54:37.994Z,8.75
2023-05-16T16:56:12.542Z,15.88
2023-05-16T16:57:45.883Z,17.08
2023-05-16T16:59:19.463Z,18.13
2023-05-16T17:00:53.225Z,16.13
2023-05-16T17:02:27.208Z,6.38
2023-05-16T17:04:00.828Z,7.22
2023-05-16T17:05:34.026Z,14.20
2023-05-16T17:07:07.675Z,11.15
2023-05-16T17:08:40.860Z,9.07
2023-05-16T17:10:14.199Z,10.02
2023-05-16T17:11:49.139Z,9.55
2023-05-16T17:13:22.578Z,7.38
2023-05-16T17:14:56.282Z,8.75
2023-05-16T17:16:29.860Z,9.85
2023-05-16T17:18:05.228Z,12.80
2023-05-16T17:19:38.855Z,11.15
2023-05-16T17:21:13.351Z,12.60
2023-05-16T17:22:48.371Z,10.68
2023-05-16T17:24:21.802Z,10.98
2023-05-16T17:25:55.267Z,9.45
2023-05-16T17:27:29.862Z,13.57
2023-05-16T17:29:04.361Z,12.35
2023-05-16T17:30:37.678Z,16.70
2023-05-16T17:32:10.959Z,11.05
2023-05-16T17:33:44.562Z,14.05
2023-05-16T17:35:18.411Z,11.27
2023-05-16T17:36:51.612Z,10.80
2023-05-16T17:38:25.299Z,8.18
2023-05-16T17:39:58.698Z,9.13
2023-05-16T17:41:32.540Z,15.90
2023-05-16T17:43:07.107Z,10.73
2023-05-16T17:44:41.241Z,8.50
2023-05-16T17:46:14.563Z,8.40
2023-05-16T17:47:47.928Z,18.70
2023-05-16T17:49:21.769Z,11.77
2023-05-16T17:50:56.075Z,52.22
2023-05-16T17:52:29.407Z,32.75
2023-05-16T17:54:03.896Z,30.83
2023-05-16T17:55:38.509Z,22.95
2023-05-16T17:57:13.176Z,25.60
2023-05-16T17:58:47.771Z,19.23
2023-05-16T18:00:22.626Z,19.90
2023-05-16T18:01:57.463Z,15.98
2023-05-16T18:03:31.182Z,14.02
2023-05-16T18:05:04.687Z,13.75
2023-05-16T18:06:38.926Z,13.60
2023-05-16T18:08:12.082Z,16.30
2023-05-16T18:09:45.642Z,11.40
2023-05-16T18:11:19.168Z,18.90
2023-05-16T18:12:52.470Z,15.68
2023-05-16T18:14:27.190Z,9.45
2023-05-16T18:16:00.627Z,20.95
2023-05-16T18:17:34.639Z,10.77
2023-05-16T18:19:08.848Z,10.32
2023-05-16T18:20:42.971Z,14.40
2023-05-16T18:22:16.306Z,15.70
2023-05-16T18:23:49.863Z,12.35
2023-05-16T18:25:23.153Z,16.40
2023-05-16T18:26:56.280Z,14.68
2023-05-16T18:28:29.924Z,23.20
2023-05-16T18:30:05.699Z,13.07
2023-05-16T18:31:41.358Z,15.73
2023-05-16T18:33:14.682Z,24.95
2023-05-16T18:34:48.103Z,23.42
2023-05-16T18:36:21.281Z,24.45
2023-05-16T18:37:54.488Z,20.27
2023-05-16T18:39:27.670Z,17.65
2023-05-16T18:41:01.235Z,20.90
2023-05-16T18:42:34.456Z,10.90
2023-05-16T18:44:07.690Z,16.38
2023-05-16T18:45:42.260Z,13.50
2023-05-16T18:47:16.275Z,17.77
2023-05-16T18:48:49.552Z,13.82
2023-05-16T18:50:22.982Z,12.13
2023-05-16T18:51:57.022Z,13.30
2023-05-16T18:53:30.309Z,12.52
2023-05-16T18:55:03.694Z,13.35
2023-05-16T18:56:37.282Z,16.08
2023-05-16T18:58:11.434Z,9.85
2023-05-16T18:59:44.962Z,7.65
2023-05-16T19:01:22.382Z,12.32
2023-05-16T19:02:55.934Z,9.55
2023-05-16T19:04:29.221Z,12.57
2023-05-16T19:06:02.730Z,13.00
2023-05-16T19:07:35.956Z,14.82
2023-05-16T19:09:09.348Z,12.30
2023-05-16T19:10:42.538Z,15.30
2023-05-16T19:12:15.912Z,15.23
2023-05-16T19:13:49.529Z,10.20
2023-05-16T19:15:21.829Z,15.60
2023-05-16T19:16:56.393Z,11.85
2023-05-16T19:18:29.966Z,14.07
2023-05-16T19:20:03.540Z,13.40
2023-05-16T19:21:37.003Z,20.15
2023-05-16T19:23:10.183Z,21.33
2023-05-16T19:24:43.544Z,19.10
2023-05-16T19:26:16.773Z,19.02
2023-05-16T19:27:50.071Z,23.35
2023-05-16T19:29:23.297Z,15.82
2023-05-16T19:30:56.774Z,11.20
2023-05-16T19:32:31.537Z,14.10
2023-05-16T19:34:05.327Z,13.50
2023-05-16T19:35:39.653Z,11.50
2023-05-16T19:37:17.581Z,14.60
2023-05-16T19:38:50.958Z,12.88
2023-05-16T19:40:24.108Z,9.13
2023-05-16T19:42:06.285Z,9.57
2023-05-16T19:43:40.684Z,10.65
2023-05-16T19:45:13.860Z,10.00
2023-05-16T19:46:47.111Z,24.58
2023-05-16T19:48:21.780Z,13.45
2023-05-16T19:49:55.183Z,12.18
2023-05-16T19:51:40.838Z,15.95
2023-05-16T19:53:15.381Z,11.80
2023-05-16T19:54:48.618Z,17.63
2023-05-16T19:56:22.489Z,9.05
2023-05-16T19:57:55.986Z,14.30
2023-05-16T19:59:29.530Z,16.48
2023-05-16T20:01:02.921Z,12.07
2023-05-16T20:02:36.400Z,13.38
2023-05-16T20:04:11.667Z,7.93
2023-05-16T20:05:45.193Z,8.88
2023-05-16T20:07:18.374Z,10.95
2023-05-16T20:08:51.721Z,14.15
2023-05-16T20:10:25.095Z,12.52
2023-05-16T20:11:59.100Z,10.05
2023-05-16T20:13:32.595Z,8.25
2023-05-16T20:15:08.859Z,11.20
2023-05-16T20:16:42.114Z,9.93
2023-05-16T20:18:15.430Z,7.45
2023-05-16T20:19:50.097Z,11.15
2023-05-16T20:21:23.547Z,8.80
2023-05-16T20:22:56.767Z,10.63
2023-05-16T20:24:29.953Z,10.88
2023-05-16T20:26:03.114Z,7.68
2023-05-16T20:27:36.932Z,16.88